TimeCST,TemperatureF,Dew PointF,Humidity,Sea Level PressureIn,VisibilityMPH,Wind Direction,Wind SpeedMPH,Gust SpeedMPH,PrecipitationIn,Events,Conditions,WindDirDegrees,DateUTC
12:13 AM,30.2,28.4,93,29.90,0.5,SE,12.7,19.6,N/A,Snow,Heavy Snow,130,2012-12-09 06:13:00
12:32 AM,28.4,28.4,100,29.89,0.8,ESE,13.8,17.3,N/A,Snow,Snow,120,2012-12-09 06:32:00
12:53 AM,30.2,28.4,93,29.89,1.5,SE,13.8,-,N/A,Snow,Light Snow,140,2012-12-09 06:53:00
1:12 AM,30.2,28.4,93,29.88,1.8,SE,11.5,19.6,N/A,Snow,Light Snow,140,2012-12-09 07:12:00
1:33 AM,30.2,28.4,93,29.88,1.2,SE,12.7,18.4,N/A,Snow,Light Snow,130,2012-12-09 07:33:00
1:53 AM,30.2,28.4,93,29.88,1.8,SE,10.4,16.1,N/A,Snow,Light Snow,140,2012-12-09 07:53:00
2:12 AM,30.2,28.4,93,29.88,1.2,SE,10.4,-,0.01,Snow,Light Snow,140,2012-12-09 08:12:00
2:53 AM,30.2,28.4,93,29.88,1.8,SE,8.1,-,0.04,Snow,Light Snow,130,2012-12-09 08:53:00
3:12 AM,30.2,28.4,93,29.88,2.5,SSE,8.1,-,0.01,Snow,Light Snow,150,2012-12-09 09:12:00
3:33 AM,30.2,28.4,93,29.87,1.2,SE,9.2,-,0.02,Snow,Light Snow,130,2012-12-09 09:33:00
3:53 AM,30.2,28.4,93,29.86,3.0,ESE,10.4,-,0.03,Snow,Light Snow,120,2012-12-09 09:53:00
4:12 AM,30.2,28.4,93,29.85,4.0,ESE,9.2,-,N/A,Snow,Light Snow,120,2012-12-09 10:12:00
4:33 AM,30.2,28.4,93,29.87,4.0,SE,8.1,-,0.02,Snow,Light Snow,130,2012-12-09 10:33:00
4:53 AM,30.2,28.4,93,29.87,3.0,ESE,10.4,-,0.02,Snow,Light Snow,120,2012-12-09 10:53:00
5:12 AM,30.2,28.4,93,29.86,2.0,ESE,11.5,-,0.01,Snow,Light Snow,110,2012-12-09 11:12:00
5:33 AM,30.2,28.4,93,29.86,1.2,ESE,9.2,-,0.01,Snow,Light Snow,110,2012-12-09 11:33:00
5:53 AM,30.2,28.4,93,29.85,1.8,ESE,8.1,-,0.02,Snow,Light Snow,110,2012-12-09 11:53:00
6:12 AM,30.2,28.4,93,29.86,1.8,East,10.4,-,N/A,Snow,Light Snow,100,2012-12-09 12:12:00
6:33 AM,30.2,28.4,93,29.86,1.2,East,8.1,-,0.01,Snow,Light Snow,100,2012-12-09 12:33:00
6:53 AM,30.2,28.4,93,29.87,1.2,East,10.4,-,0.01,Snow,Light Snow,100,2012-12-09 12:53:00
7:12 AM,30.2,28.4,93,29.87,1.5,East,12.7,-,0.01,Snow,Light Snow,100,2012-12-09 13:12:00
7:33 AM,28.4,28.4,100,29.87,-9999.0,East,13.8,-,0.01,,Overcast,90,2012-12-09 13:33:00
7:53 AM,28.4,28.4,100,29.88,-9999.0,East,12.7,-,0.01,,Overcast,90,2012-12-09 13:53:00
8:12 AM,28.4,28.4,100,29.88,-9999.0,East,12.7,17.3,0.01,,Overcast,90,2012-12-09 14:12:00
8:33 AM,28.4,28.4,100,29.89,-9999.0,East,11.5,16.1,0.01,,Overcast,80,2012-12-09 14:33:00
8:53 AM,28.4,28.4,100,29.89,-9999.0,East,11.5,17.3,0.02,,Overcast,80,2012-12-09 14:53:00
9:12 AM,28.4,28.4,100,29.89,-9999.0,East,13.8,19.6,N/A,,Overcast,80,2012-12-09 15:12:00
9:33 AM,28.4,28.4,100,29.89,-9999.0,ENE,11.5,18.4,0.01,,Unknown,70,2012-12-09 15:33:00
9:53 AM,28.4,26.6,93,29.90,-9999.0,ENE,15.0,19.6,N/A,,Unknown,70,2012-12-09 15:53:00
10:13 AM,28.4,26.6,93,29.91,-9999.0,ENE,13.8,19.6,0.01,,Unknown,70,2012-12-09 16:13:00
10:33 AM,28.4,26.6,93,29.91,-9999.0,ENE,16.1,21.9,N/A,,Unknown,70,2012-12-09 16:33:00
10:53 AM,28.4,26.6,93,29.91,-9999.0,ENE,19.6,24.2,N/A,,Unknown,60,2012-12-09 16:53:00
11:13 AM,28.4,26.6,93,29.91,-9999.0,ENE,18.4,24.2,N/A,,Overcast,60,2012-12-09 17:13:00
11:32 AM,28.4,26.6,93,29.90,-9999.0,NE,19.6,32.2,N/A,,Overcast,50,2012-12-09 17:32:00
11:53 AM,28.4,24.8,86,29.90,-9999.0,NE,20.7,29.9,N/A,,Overcast,50,2012-12-09 17:53:00
12:13 PM,26.6,24.8,93,29.90,-9999.0,NE,24.2,32.2,N/A,,Unknown,50,2012-12-09 18:13:00
12:33 PM,24.8,21.2,86,29.90,-9999.0,NE,26.5,36.8,N/A,,Unknown,40,2012-12-09 18:33:00
12:52 PM,24.8,21.2,86,29.91,-9999.0,NE,24.2,33.4,N/A,,Overcast,40,2012-12-09 18:52:00
1:05 PM,24.8,21.2,86,29.91,-9999.0,NE,21.9,32.2,N/A,,Overcast,40,2012-12-09 19:05:00